Time;durP1;ratioP1;P1;durP2;ratioP2;P2;SDS_P1;SDS_P2;PMS_P1;PMS_P2;Temp;Humidity;BMP_temperature;BMP_pressure;BME280_temperature;BME280_humidity;BME280_pressure;Samples;Min_cycle;Max_cycle;Signal;HPM_P1;HPM_P2
2022/06/12 00:01:12;;;;;;;10.05;4.95;;;;;;;;;;4972698;28;20030;-87
2022/06/12 00:03:39;;;;;;;8.35;4.18;;;;;;;;;;4990546;28;20400;-87
2022/06/12 00:06:05;;;;;;;11.18;4.80;;;;;;;;;;4993198;28;20112;-87
2022/06/12 00:08:32;;;;;;;7.78;5.30;;;;;;;;;;4993844;28;20026;-87
2022/06/12 00:10:59;;;;;;;8.95;4.78;;;;;;;;;;4993217;28;20061;-87
2022/06/12 00:13:28;;;;;;;7.72;4.40;;;;;;;;;;4994131;28;20032;-86
2022/06/12 00:15:54;;;;;;;10.32;4.68;;;;;;;;;;4992396;28;20026;-88
2022/06/12 00:18:20;;;;;;;7.43;4.43;;;;;;;;;;4993646;28;20030;-87
2022/06/12 00:20:46;;;;;;;9.98;4.85;;;;;;;;;;4993325;28;20029;-87
2022/06/12 00:23:14;;;;;;;9.05;4.80;;;;;;;;;;4993591;28;20153;-88
2022/06/12 00:25:46;;;;;;;7.75;4.95;;;;;;;;;;4992062;28;20046;-88
2022/06/12 00:28:12;;;;;;;5.03;4.22;;;;;;;;;;4993533;28;20045;-89
2022/06/12 00:30:38;;;;;;;6.00;4.20;;;;;;;;;;4991464;28;20077;-88
2022/06/12 00:33:05;;;;;;;8.60;4.45;;;;;;;;;;4993894;28;20019;-89
2022/06/12 00:35:33;;;;;;;9.77;5.28;;;;;;;;;;4992839;28;20480;-88
2022/06/12 00:37:59;;;;;;;7.00;4.57;;;;;;;;;;4992441;28;20682;-88
2022/06/12 00:40:25;;;;;;;9.73;4.32;;;;;;;;;;4993415;28;20022;-88
2022/06/12 00:42:53;;;;;;;8.57;4.72;;;;;;;;;;4993659;28;20369;-87
2022/06/12 00:45:32;;;;;;;8.75;4.75;;;;;;;;;;4991684;28;20080;-88
2022/06/12 00:47:59;;;;;;;7.72;4.18;;;;;;;;;;4991979;28;20024;-88
2022/06/12 00:50:25;;;;;;;4.63;3.72;;;;;;;;;;4991621;28;20116;-88
2022/06/12 00:52:52;;;;;;;6.70;4.45;;;;;;;;;;4993220;28;20181;-88
2022/06/12 00:55:26;;;;;;;9.02;4.85;;;;;;;;;;4993782;28;20030;-88
2022/06/12 00:57:57;;;;;;;8.50;4.30;;;;;;;;;;4993754;28;20472;-87
2022/06/12 01:00:23;;;;;;;7.25;4.75;;;;;;;;;;4991569;28;20031;-88
2022/06/12 01:02:49;;;;;;;6.43;4.32;;;;;;;;;;4991712;28;22125;-88
2022/06/12 01:08:04;;;;;;;10.05;4.93;;;;;;;;;;4993092;28;20041;-88
2022/06/12 01:10:30;;;;;;;5.72;4.25;;;;;;;;;;4991952;28;20026;-88
2022/06/12 01:13:02;;;;;;;9.68;4.47;;;;;;;;;;4993103;28;20480;-88
2022/06/12 01:15:31;;;;;;;8.13;4.32;;;;;;;;;;4988499;28;20034;-88
2022/06/12 01:17:58;;;;;;;7.15;4.65;;;;;;;;;;4973546;28;20080;-88
2022/06/12 01:20:27;;;;;;;8.02;4.05;;;;;;;;;;4989196;28;20023;-88
2022/06/12 01:22:56;;;;;;;9.93;4.55;;;;;;;;;;4994515;28;20022;-88
2022/06/12 01:25:35;;;;;;;8.55;5.10;;;;;;;;;;4994954;28;20026;-88
2022/06/12 01:28:04;;;;;;;8.13;4.25;;;;;;;;;;4993489;28;20121;-88
2022/06/12 01:30:30;;;;;;;7.57;4.07;;;;;;;;;;5012283;28;20018;-88
2022/06/12 01:32:59;;;;;;;6.13;4.20;;;;;;;;;;4999826;28;20392;-88
2022/06/12 01:35:25;;;;;;;10.27;5.05;;;;;;;;;;4994794;28;20031;-87
2022/06/12 01:38:02;;;;;;;9.43;4.50;;;;;;;;;;4994311;28;20026;-87
2022/06/12 01:40:37;;;;;;;6.95;4.10;;;;;;;;;;4994487;28;20037;-87
2022/06/12 01:43:03;;;;;;;7.55;4.03;;;;;;;;;;4993578;28;20094;-88
2022/06/12 01:45:49;;;;;;;7.55;4.18;;;;;;;;;;4992942;28;20472;-88
2022/06/12 01:48:39;;;;;;;10.32;4.15;;;;;;;;;;4973393;28;20113;-87
2022/06/12 01:51:05;;;;;;;8.55;3.90;;;;;;;;;;4990554;28;20567;-88
2022/06/12 01:53:37;;;;;;;8.82;4.43;;;;;;;;;;4993203;28;20027;-87
2022/06/12 01:56:11;;;;;;;5.53;3.42;;;;;;;;;;4993234;28;20034;-87
2022/06/12 01:58:45;;;;;;;5.80;3.78;;;;;;;;;;4994952;28;20030;-87
2022/06/12 02:01:14;;;;;;;7.60;3.42;;;;;;;;;;4995502;28;20030;-87
2022/06/12 02:03:40;;;;;;;8.68;3.72;;;;;;;;;;4996334;28;20026;-88
2022/06/12 02:06:29;;;;;;;6.30;3.60;;;;;;;;;;4993161;28;20022;-88
2022/06/12 02:09:00;;;;;;;4.88;3.25;;;;;;;;;;5004401;28;20146;-88
2022/06/12 02:14:21;;;;;;;5.40;3.45;;;;;;;;;;4972689;28;20044;-88
2022/06/12 02:16:49;;;;;;;4.18;3.17;;;;;;;;;;4975103;28;20026;-88
2022/06/12 02:19:21;;;;;;;6.15;3.20;;;;;;;;;;4981222;28;20021;-87
2022/06/12 02:21:55;;;;;;;4.70;3.63;;;;;;;;;;4994722;28;20400;-88
2022/06/12 02:24:25;;;;;;;11.60;4.20;;;;;;;;;;4994579;28;20472;-87
2022/06/12 02:27:03;;;;;;;7.93;3.53;;;;;;;;;;4995640;28;20491;-87
2022/06/12 02:29:40;;;;;;;6.38;3.83;;;;;;;;;;4996263;28;20030;-87
2022/06/12 02:32:21;;;;;;;6.88;3.63;;;;;;;;;;5012986;28;20023;-88
2022/06/12 02:34:47;;;;;;;;;;;;;;;;;;5019017;28;20085;-89
2022/06/12 02:37:24;;;;;;;4.80;3.40;;;;;;;;;;4997708;28;19959;-88
2022/06/12 02:39:59;;;;;;;4.95;3.58;;;;;;;;;;4995767;28;20480;-88
2022/06/12 02:42:27;;;;;;;6.70;3.50;;;;;;;;;;4976324;28;20515;-88
2022/06/12 02:45:04;;;;;;;7.45;3.47;;;;;;;;;;4975116;28;20034;-88
2022/06/12 02:47:32;;;;;;;5.43;3.20;;;;;;;;;;4976188;28;20089;-88
2022/06/12 02:50:02;;;;;;;6.38;3.50;;;;;;;;;;4976397;28;20489;-88
2022/06/12 02:53:02;;;;;;;4.88;3.45;;;;;;;;;;4976114;28;20570;-89
2022/06/12 02:55:36;;;;;;;5.97;3.30;;;;;;;;;;4987193;28;20042;-89
2022/06/12 02:58:19;;;;;;;5.47;3.55;;;;;;;;;;4986030;28;20046;-89
2022/06/12 03:00:57;;;;;;;7.00;3.78;;;;;;;;;;4995478;28;20026;-88
2022/06/12 03:03:26;;;;;;;6.15;3.35;;;;;;;;;;4993882;28;20369;-88
2022/06/12 03:05:53;;;;;;;6.15;3.45;;;;;;;;;;5029741;23;20047;-89
2022/06/12 03:08:23;;;;;;;7.97;3.28;;;;;;;;;;4955287;28;20050;-90
2022/06/12 03:10:52;;;;;;;9.93;5.22;;;;;;;;;;4954884;28;20474;-90
2022/06/12 03:13:19;;;;;;;8.55;3.88;;;;;;;;;;4955168;28;20039;-88
2022/06/12 03:15:45;;;;;;;7.00;3.33;;;;;;;;;;4941331;28;20027;-90
2022/06/12 03:18:18;;;;;;;6.93;3.72;;;;;;;;;;4935413;29;20032;-89
2022/06/12 03:20:53;;;;;;;7.10;3.72;;;;;;;;;;4935241;29;20032;-88
2022/06/12 03:23:48;;;;;;;5.18;3.80;;;;;;;;;;4935828;29;20126;-90
2022/06/12 03:26:29;;;;;;;5.28;3.53;;;;;;;;;;4902101;29;20480;-89
2022/06/12 03:28:55;;;;;;;;;;;;;;;;;;4937827;29;20075;-90
2022/06/12 03:31:45;;;;;;;6.30;3.78;;;;;;;;;;4965794;29;19911;-89
2022/06/12 03:34:16;;;;;;;7.00;3.65;;;;;;;;;;4968741;29;20055;-90
2022/06/12 03:36:48;;;;;;;6.85;3.90;;;;;;;;;;4960846;29;20043;-92
2022/06/12 03:39:23;;;;;;;5.40;3.95;;;;;;;;;;4959541;29;20047;-91
2022/06/12 03:41:54;;;;;;;5.85;3.78;;;;;;;;;;4943008;29;20054;-89
2022/06/12 03:44:42;;;;;;;6.63;3.65;;;;;;;;;;4936631;29;20059;-90
2022/06/12 03:47:21;;;;;;;7.80;3.97;;;;;;;;;;4935383;29;20467;-89
2022/06/12 03:50:11;;;;;;;6.30;3.75;;;;;;;;;;4935632;29;20024;-90
2022/06/12 03:52:43;;;;;;;4.43;3.33;;;;;;;;;;4943925;29;20036;-91
2022/06/12 03:55:11;;;;;;;5.50;3.58;;;;;;;;;;4935097;29;20347;-91
2022/06/12 03:57:52;;;;;;;4.75;3.47;;;;;;;;;;4936869;29;20020;-90
2022/06/12 04:00:21;;;;;;;4.68;3.63;;;;;;;;;;4935402;29;20050;-90
2022/06/12 04:02:51;;;;;;;5.53;3.90;;;;;;;;;;4936883;29;20032;-91
2022/06/12 04:05:40;;;;;;;4.47;3.47;;;;;;;;;;4934997;29;20031;-90
2022/06/12 04:08:08;;;;;;;6.47;3.85;;;;;;;;;;4946096;29;20044;-90
2022/06/12 04:10:36;;;;;;;5.93;3.88;;;;;;;;;;4936121;29;20265;-90
2022/06/12 04:13:04;;;;;;;3.75;2.90;;;;;;;;;;4935693;29;20394;-91
2022/06/12 04:15:34;;;;;;;5.88;3.80;;;;;;;;;;4934807;29;20115;-90
2022/06/12 04:18:01;;;;;;;4.00;3.40;;;;;;;;;;4934794;29;20063;-90
2022/06/12 04:20:46;;;;;;;10.48;4.63;;;;;;;;;;4918789;29;20036;-91
2022/06/12 04:23:25;;;;;;;5.22;3.80;;;;;;;;;;4935200;29;20028;-90
2022/06/12 04:25:56;;;;;;;4.88;3.45;;;;;;;;;;4955460;28;20031;-91
2022/06/12 04:28:28;;;;;;;7.10;3.33;;;;;;;;;;4954050;29;20035;-89
2022/06/12 04:30:54;;;;;;;5.22;3.10;;;;;;;;;;4964997;29;20050;-90
2022/06/12 04:33:27;;;;;;;5.43;3.47;;;;;;;;;;4962064;29;20031;-89
2022/06/12 04:35:56;;;;;;;7.05;3.33;;;;;;;;;;4955703;28;20027;-91
2022/06/12 04:38:23;;;;;;;4.38;3.00;;;;;;;;;;4955318;28;20034;-90
2022/06/12 04:40:49;;;;;;;4.32;3.20;;;;;;;;;;4935632;29;20028;-90
2022/06/12 04:43:16;;;;;;;9.32;3.22;;;;;;;;;;4936120;29;20028;-90
2022/06/12 04:45:43;;;;;;;5.72;3.05;;;;;;;;;;4934891;29;20054;-90
2022/06/12 04:48:12;;;;;;;5.07;2.80;;;;;;;;;;4951774;28;20020;-94
2022/06/12 04:50:38;;;;;;;3.78;3.00;;;;;;;;;;4949175;28;20043;-89
2022/06/12 04:53:05;;;;;;;5.00;3.47;;;;;;;;;;4934440;29;20401;-90
2022/06/12 04:55:33;;;;;;;4.30;2.90;;;;;;;;;;4934557;29;20035;-89
2022/06/12 04:57:59;;;;;;;6.90;2.70;;;;;;;;;;4936050;29;20032;-89
2022/06/12 05:00:25;;;;;;;5.18;3.08;;;;;;;;;;4935332;29;20110;-87
2022/06/12 05:02:51;;;;;;;6.38;3.33;;;;;;;;;;4935616;29;20027;-89
2022/06/12 05:05:17;;;;;;;6.10;2.88;;;;;;;;;;4935307;29;20050;-89
2022/06/12 05:07:43;;;;;;;3.53;2.80;;;;;;;;;;4934319;29;20121;-90
2022/06/12 05:10:10;;;;;;;5.72;2.80;;;;;;;;;;4935591;29;20386;-91
2022/06/12 05:12:36;;;;;;;5.63;3.33;;;;;;;;;;4933985;29;20478;-90
2022/06/12 05:15:03;;;;;;;3.67;2.65;;;;;;;;;;4935274;29;20036;-90
2022/06/12 05:17:29;;;;;;;6.30;3.00;;;;;;;;;;4954459;29;20594;-90
2022/06/12 05:19:55;;;;;;;5.95;2.88;;;;;;;;;;4942034;29;20062;-90
2022/06/12 05:22:23;;;;;;;7.80;3.10;;;;;;;;;;4934965;29;20063;-89
2022/06/12 05:24:49;;;;;;;6.47;2.83;;;;;;;;;;4934313;29;20047;-90
2022/06/12 05:27:17;;;;;;;6.45;2.55;;;;;;;;;;4935208;29;20463;-89
2022/06/12 05:29:44;;;;;;;5.47;3.15;;;;;;;;;;4937176;29;20388;-90
2022/06/12 05:32:12;;;;;;;4.00;2.30;;;;;;;;;;4953453;29;20109;-90
2022/06/12 05:34:38;;;;;;;9.15;2.85;;;;;;;;;;4943441;29;20046;-90
2022/06/12 05:37:04;;;;;;;4.03;2.63;;;;;;;;;;4933524;29;20032;-89
2022/06/12 05:39:31;;;;;;;7.25;2.95;;;;;;;;;;4933828;29;20028;-87
2022/06/12 05:41:57;;;;;;;4.00;3.00;;;;;;;;;;4933526;29;20043;-90
2022/06/12 05:44:23;;;;;;;3.53;2.65;;;;;;;;;;4940323;28;20363;-88
2022/06/12 05:46:49;;;;;;;3.47;2.65;;;;;;;;;;4952743;29;20038;-89
2022/06/12 05:49:15;;;;;;;7.95;2.65;;;;;;;;;;4954787;28;20026;-87
2022/06/12 05:51:42;;;;;;;4.65;2.50;;;;;;;;;;4955640;28;20023;-90
2022/06/12 05:54:08;;;;;;;6.55;2.83;;;;;;;;;;4957128;28;20031;-89
2022/06/12 05:56:35;;;;;;;5.57;3.00;;;;;;;;;;4957952;29;20031;-89
2022/06/12 05:59:01;;;;;;;6.88;2.65;;;;;;;;;;4954802;29;20030;-90
2022/06/12 06:01:28;;;;;;;4.90;2.58;;;;;;;;;;4957754;28;20115;-89
2022/06/12 06:03:54;;;;;;;5.40;3.47;;;;;;;;;;4951268;28;20433;-88
2022/06/12 06:06:29;;;;;;;9.45;3.10;;;;;;;;;;4937363;29;20039;-89
2022/06/12 06:08:55;;;;;;;5.00;2.50;;;;;;;;;;4938834;29;20024;-89
2022/06/12 06:11:21;;;;;;;4.35;1.98;;;;;;;;;;4937528;29;20090;-89
2022/06/12 06:13:48;;;;;;;8.32;2.45;;;;;;;;;;4938835;29;20119;-89
2022/06/12 06:16:14;;;;;;;3.63;2.30;;;;;;;;;;4949222;29;20038;-90
2022/06/12 06:18:40;;;;;;;4.35;2.20;;;;;;;;;;4955031;29;20035;-89
2022/06/12 06:21:11;;;;;;;3.33;2.63;;;;;;;;;;4937054;29;20028;-89
2022/06/12 06:23:37;;;;;;;2.50;2.15;;;;;;;;;;4940793;29;20028;-89
2022/06/12 06:26:03;;;;;;;3.63;1.90;;;;;;;;;;4937678;29;20031;-89
2022/06/12 06:28:30;;;;;;;9.75;2.58;;;;;;;;;;4939422;29;20032;-90
2022/06/12 06:30:58;;;;;;;5.95;2.00;;;;;;;;;;4940355;29;20028;-90
2022/06/12 06:33:27;;;;;;;4.93;2.05;;;;;;;;;;4938441;29;20028;-89
2022/06/12 06:35:58;;;;;;;4.25;1.98;;;;;;;;;;4937754;29;20038;-90
2022/06/12 06:38:24;;;;;;;2.92;1.83;;;;;;;;;;4939979;29;20028;-87
2022/06/12 06:40:50;;;;;;;3.90;2.20;;;;;;;;;;4941197;29;20090;-90
2022/06/12 06:43:16;;;;;;;7.28;2.42;;;;;;;;;;4944175;29;20063;-90
2022/06/12 06:48:28;;;;;;;4.07;1.83;;;;;;;;;;4944175;29;20116;-89
2022/06/12 06:50:54;;;;;;;3.15;1.90;;;;;;;;;;4960555;29;20135;-90
2022/06/12 06:53:21;;;;;;;5.15;2.15;;;;;;;;;;4960221;29;20034;-88
2022/06/12 06:55:47;;;;;;;9.73;2.00;;;;;;;;;;4942492;29;20034;-89
2022/06/12 06:58:16;;;;;;;3.83;2.40;;;;;;;;;;4947340;29;20038;-86
2022/06/12 07:00:43;;;;;;;3.53;2.03;;;;;;;;;;4960638;29;20039;-89
2022/06/12 07:03:09;;;;;;;5.20;1.73;;;;;;;;;;4962701;28;20019;-89
2022/06/12 07:05:36;;;;;;;9.15;2.45;;;;;;;;;;4962656;28;20031;-88
2022/06/12 07:08:03;;;;;;;2.30;2.10;;;;;;;;;;4958970;29;20024;-89
2022/06/12 07:10:31;;;;;;;3.03;2.30;;;;;;;;;;4943416;29;20031;-86
2022/06/12 07:12:57;;;;;;;2.30;2.10;;;;;;;;;;4936074;29;20028;-86
2022/06/12 07:15:23;;;;;;;5.00;2.00;;;;;;;;;;4923037;29;20112;-86
2022/06/12 07:17:50;;;;;;;3.60;1.90;;;;;;;;;;4937892;29;20043;-85
2022/06/12 07:20:17;;;;;;;2.88;2.08;;;;;;;;;;4937700;29;20031;-85
2022/06/12 07:22:43;;;;;;;9.80;5.38;;;;;;;;;;4959795;28;20015;-91
2022/06/12 07:25:11;;;;;;;5.57;2.05;;;;;;;;;;4940770;29;20030;-86
2022/06/12 07:27:38;;;;;;;5.40;2.42;;;;;;;;;;4937986;29;20020;-86
2022/06/12 07:30:05;;;;;;;3.10;1.50;;;;;;;;;;4937729;29;20024;-87
2022/06/12 07:32:31;;;;;;;5.32;1.90;;;;;;;;;;4923378;29;20035;-87
2022/06/12 07:34:57;;;;;;;6.82;1.70;;;;;;;;;;4952652;29;20028;-88
2022/06/12 07:40:44;;;;;;;6.70;1.63;;;;;;;;;;4970000;28;20094;-91
2022/06/12 07:43:10;;;;;;;4.45;1.60;;;;;;;;;;4966891;28;20011;-92
2022/06/12 07:45:38;;;;;;;2.38;1.65;;;;;;;;;;4960643;28;20019;-91
2022/06/12 07:48:05;;;;;;;2.90;1.65;;;;;;;;;;4959934;28;20055;-90
2022/06/12 07:50:34;;;;;;;3.70;1.60;;;;;;;;;;4959202;28;20104;-91
2022/06/12 07:53:00;;;;;;;6.60;1.35;;;;;;;;;;4960810;29;20039;-89
2022/06/12 07:55:27;;;;;;;7.75;1.77;;;;;;;;;;4960090;29;20035;-92
2022/06/12 07:57:53;;;;;;;2.95;1.30;;;;;;;;;;4960593;29;20091;-92
2022/06/12 08:00:20;;;;;;;3.72;1.60;;;;;;;;;;4961264;29;20035;-91
2022/06/12 08:02:47;;;;;;;2.72;1.55;;;;;;;;;;4960656;28;20012;-90
2022/06/12 08:05:14;;;;;;;3.00;1.55;;;;;;;;;;4960992;29;20051;-91
2022/06/12 08:07:40;;;;;;;6.88;1.45;;;;;;;;;;4960822;29;20016;-93
2022/06/12 08:10:06;;;;;;;4.63;1.50;;;;;;;;;;5232507;23;20031;-90
2022/06/12 08:12:33;;;;;;;2.88;1.60;;;;;;;;;;4973940;28;20038;-91
2022/06/12 08:15:00;;;;;;;3.70;1.70;;;;;;;;;;4980599;23;20103;-93
2022/06/12 08:17:26;;;;;;;4.65;1.95;;;;;;;;;;4980072;28;20046;-92
2022/06/12 08:22:37;;;;;;;1.63;1.52;;;;;;;;;;4980417;28;20055;-90
2022/06/12 08:25:03;;;;;;;1.85;1.52;;;;;;;;;;4970797;28;20083;-92
2022/06/12 08:27:29;;;;;;;3.72;1.55;;;;;;;;;;4960816;28;20011;-90
2022/06/12 08:29:56;;;;;;;2.95;1.80;;;;;;;;;;4960852;28;20063;-90
2022/06/12 08:32:22;;;;;;;1.58;1.25;;;;;;;;;;4961012;28;20035;-90
2022/06/12 08:34:50;;;;;;;3.50;1.27;;;;;;;;;;4960549;29;20024;-89
2022/06/12 08:37:21;;;;;;;3.42;1.40;;;;;;;;;;4960349;29;20043;-90
2022/06/12 08:39:47;;;;;;;;;;;;;;;;;;4961609;29;20035;-91
2022/06/12 08:42:24;;;;;;;3.05;1.67;;;;;;;;;;4961050;29;19958;-89
2022/06/12 08:45:03;;;;;;;3.47;1.58;;;;;;;;;;4961149;29;20028;-89
2022/06/12 08:47:49;;;;;;;3.30;1.40;;;;;;;;;;4960928;29;20087;-90
2022/06/12 08:50:28;;;;;;;5.68;1.38;;;;;;;;;;4969305;28;20020;-88
2022/06/12 08:53:07;;;;;;;3.65;1.20;;;;;;;;;;4961320;29;20071;-90
2022/06/12 08:55:42;;;;;;;7.22;1.95;;;;;;;;;;4960752;29;20019;-88
2022/06/12 08:58:11;;;;;;;1.65;1.55;;;;;;;;;;4960721;29;20074;-90
2022/06/12 09:00:38;;;;;;;3.35;1.60;;;;;;;;;;4959897;29;20032;-88
2022/06/12 09:03:05;;;;;;;4.50;1.77;;;;;;;;;;4960036;29;20034;-88
2022/06/12 09:05:57;;;;;;;3.90;1.88;;;;;;;;;;4959437;29;20035;-93
2022/06/12 09:08:42;;;;;;;;;;;;;;;;;;;;;
2022/06/12 09:11:39;;;;;;;3.45;2.00;;;;;;;;;;5316048;23;20070;-92
2022/06/12 09:50:28;;;;;;;5.43;1.92;;;;;;;;;;4981681;28;20041;-89
2022/06/12 09:52:57;;;;;;;3.05;1.83;;;;;;;;;;4982146;28;20039;-90
2022/06/12 09:55:59;;;;;;;4.68;1.48;;;;;;;;;;4983156;28;20008;-91
2022/06/12 09:58:29;;;;;;;4.00;1.52;;;;;;;;;;4943767;29;20031;-91
2022/06/12 10:00:55;;;;;;;3.42;1.90;;;;;;;;;;4975441;28;20085;-90
2022/06/12 10:03:21;;;;;;;2.60;1.40;;;;;;;;;;4982879;28;20015;-90
2022/06/12 10:06:01;;;;;;;8.52;2.33;;;;;;;;;;4982330;28;20015;-90
2022/06/12 10:11:29;;;;;;;2.90;1.58;;;;;;;;;;5839934;23;20072;-90
2022/06/12 10:16:36;;;;;;;3.55;1.48;;;;;;;;;;5540048;23;20073;-90
2022/06/12 10:19:24;;;;;;;5.82;1.60;;;;;;;;;;5001137;28;20011;-90
2022/06/12 10:21:57;;;;;;;4.72;1.85;;;;;;;;;;5000848;28;20019;-89
2022/06/12 10:24:25;;;;;;;4.03;1.48;;;;;;;;;;5004738;28;20022;-88
2022/06/12 10:27:07;;;;;;;2.20;1.42;;;;;;;;;;5002968;28;20034;-89
2022/06/12 10:29:44;;;;;;;4.85;1.50;;;;;;;;;;4999114;28;20022;-89
2022/06/12 10:32:15;;;;;;;5.22;2.05;;;;;;;;;;4996172;28;20018;-90
2022/06/12 10:34:41;;;;;;;5.80;2.03;;;;;;;;;;4991838;28;20424;-89
2022/06/12 10:37:12;;;;;;;3.72;1.90;;;;;;;;;;4991261;28;20037;-89
2022/06/12 10:39:40;;;;;;;5.75;1.27;;;;;;;;;;4994864;28;20034;-89
2022/06/12 10:42:10;;;;;;;3.92;1.30;;;;;;;;;;4994487;28;20037;-90
2022/06/12 10:44:36;;;;;;;3.30;1.60;;;;;;;;;;4994725;28;20031;-89
2022/06/12 10:47:16;;;;;;;4.68;1.52;;;;;;;;;;4994383;28;20030;-87
2022/06/12 10:49:42;;;;;;;1.80;1.20;;;;;;;;;;4991460;28;20023;-88
2022/06/12 10:52:14;;;;;;;4.45;2.35;;;;;;;;;;4975282;28;20139;-88
2022/06/12 10:54:40;;;;;;;3.22;1.52;;;;;;;;;;4986945;28;20026;-89
2022/06/12 10:57:15;;;;;;;4.07;1.38;;;;;;;;;;4975193;28;20058;-89
2022/06/12 10:59:48;;;;;;;3.45;1.42;;;;;;;;;;4979761;28;20030;-88
2022/06/12 11:02:23;;;;;;;4.13;1.60;;;;;;;;;;4993872;28;20030;-88
2022/06/12 11:04:49;;;;;;;6.20;2.08;;;;;;;;;;4995853;28;20022;-88
2022/06/12 11:07:59;;;;;;;2.25;1.52;;;;;;;;;;4998868;28;20034;-88
2022/06/12 11:10:34;;;;;;;4.30;1.80;;;;;;;;;;4974158;28;20019;-87
2022/06/12 11:13:16;;;;;;;1.85;1.17;;;;;;;;;;4967943;28;20270;-89
2022/06/12 11:16:01;;;;;;;2.25;1.25;;;;;;;;;;4981280;28;20129;-90
2022/06/12 11:18:32;;;;;;;1.80;1.27;;;;;;;;;;4993945;28;20036;-89
2022/06/12 11:21:21;;;;;;;3.03;1.40;;;;;;;;;;4994561;28;20030;-90
2022/06/12 11:23:48;;;;;;;5.63;2.30;;;;;;;;;;4991698;28;20026;-89
2022/06/12 11:26:43;;;;;;;5.72;2.13;;;;;;;;;;4994141;28;20044;-89
2022/06/12 11:29:22;;;;;;;4.47;1.30;;;;;;;;;;4988716;28;20403;-89
2022/06/12 11:31:48;;;;;;;3.47;1.20;;;;;;;;;;4994125;28;20454;-89
2022/06/12 11:34:33;;;;;;;3.92;1.58;;;;;;;;;;4994334;28;20101;-89
2022/06/12 11:37:03;;;;;;;6.70;1.85;;;;;;;;;;4992872;28;20030;-90
2022/06/12 11:39:41;;;;;;;2.97;1.70;;;;;;;;;;4992850;28;20022;-88
2022/06/12 11:42:25;;;;;;;2.97;1.58;;;;;;;;;;4992733;28;20027;-90
2022/06/12 11:45:04;;;;;;;4.97;1.40;;;;;;;;;;4994200;28;20037;-90
2022/06/12 11:47:42;;;;;;;3.63;1.30;;;;;;;;;;4994204;28;20022;-91
2022/06/12 11:50:18;;;;;;;5.25;1.70;;;;;;;;;;4992120;28;20023;-90
2022/06/12 11:53:01;;;;;;;2.63;1.20;;;;;;;;;;4994133;28;20034;-90
2022/06/12 11:55:34;;;;;;;8.68;1.50;;;;;;;;;;4993729;28;20022;-91
2022/06/12 11:58:12;;;;;;;2.40;1.20;;;;;;;;;;4993595;28;20057;-90
2022/06/12 12:00:38;;;;;;;3.10;1.13;;;;;;;;;;4992022;28;20443;-90
2022/06/12 12:03:23;;;;;;;2.72;1.13;;;;;;;;;;4993748;28;20022;-91
2022/06/12 12:06:00;;;;;;;3.83;1.23;;;;;;;;;;4993570;28;20014;-92
2022/06/12 12:08:45;;;;;;;1.98;1.23;;;;;;;;;;4992166;28;20117;-89
2022/06/12 12:11:34;;;;;;;4.78;1.10;;;;;;;;;;4991794;28;20030;-89
2022/06/12 12:14:03;;;;;;;2.70;1.20;;;;;;;;;;4990298;28;20069;-90
2022/06/12 12:16:38;;;;;;;2.92;1.00;;;;;;;;;;4992141;28;20038;-90
2022/06/12 12:19:16;;;;;;;3.72;1.00;;;;;;;;;;4991952;28;20022;-91
2022/06/12 12:21:45;;;;;;;1.85;1.30;;;;;;;;;;4992981;28;20026;-91
2022/06/12 12:24:14;;;;;;;3.58;1.30;;;;;;;;;;4993289;28;20492;-91
2022/06/12 12:26:42;;;;;;;4.28;1.38;;;;;;;;;;4993341;28;20022;-91
2022/06/12 12:29:13;;;;;;;2.67;1.13;;;;;;;;;;4993225;28;20030;-90
2022/06/12 12:31:39;;;;;;;2.38;1.13;;;;;;;;;;4991871;28;20615;-89
2022/06/12 12:34:07;;;;;;;2.45;0.93;;;;;;;;;;4992947;28;20037;-90
2022/06/12 12:42:36;;;;;;;3.65;1.38;;;;;;;;;;4992796;28;20041;-91
2022/06/12 12:45:11;;;;;;;2.65;1.25;;;;;;;;;;4991900;28;20097;-91
2022/06/12 12:47:37;;;;;;;3.92;1.23;;;;;;;;;;4991562;28;20022;-91
2022/06/12 12:50:03;;;;;;;1.98;1.17;;;;;;;;;;4991141;28;20022;-91
2022/06/12 12:52:38;;;;;;;2.33;1.08;;;;;;;;;;4992814;28;20030;-91
2022/06/12 12:55:05;;;;;;;3.85;1.45;;;;;;;;;;4992759;28;20026;-88
2022/06/12 12:57:39;;;;;;;5.00;1.67;;;;;;;;;;4991655;28;20035;-89
2022/06/12 13:00:21;;;;;;;2.88;1.50;;;;;;;;;;4990642;28;20127;-91
2022/06/12 13:02:49;;;;;;;7.07;1.42;;;;;;;;;;4991465;28;20031;-91
2022/06/12 13:05:22;;;;;;;3.33;1.45;;;;;;;;;;4991600;28;20022;-90
2022/06/12 13:08:13;;;;;;;2.50;1.23;;;;;;;;;;4992869;28;20053;-91
2022/06/12 13:10:45;;;;;;;3.40;1.13;;;;;;;;;;4991452;28;20503;-91
2022/06/12 13:13:14;;;;;;;2.53;1.10;;;;;;;;;;4984670;28;20061;-91
2022/06/12 13:15:53;;;;;;;3.90;1.45;;;;;;;;;;4973402;28;20088;-90
2022/06/12 13:18:18;;;;;;;5.15;1.02;;;;;;;;;;4973120;28;20121;-91
2022/06/12 13:20:44;;;;;;;3.70;1.00;;;;;;;;;;4989889;28;20122;-90
2022/06/12 13:23:23;;;;;;;2.58;1.40;;;;;;;;;;4991532;28;20031;-91
2022/06/12 13:25:51;;;;;;;3.67;1.35;;;;;;;;;;4992401;28;20053;-90
2022/06/12 13:28:22;;;;;;;3.90;1.40;;;;;;;;;;4992122;28;20472;-91
2022/06/12 13:30:48;;;;;;;2.95;1.40;;;;;;;;;;4991272;28;20031;-91
2022/06/12 13:33:20;;;;;;;2.67;1.42;;;;;;;;;;4991423;28;20054;-91
2022/06/12 13:35:57;;;;;;;3.67;1.30;;;;;;;;;;4992327;28;20464;-91
2022/06/12 13:38:32;;;;;;;3.33;1.25;;;;;;;;;;4990808;28;20030;-89
2022/06/12 13:41:08;;;;;;;2.80;1.40;;;;;;;;;;4991917;28;20022;-91
2022/06/12 13:43:39;;;;;;;3.47;1.08;;;;;;;;;;4991167;28;20026;-91
2022/06/12 13:46:16;;;;;;;1.50;0.82;;;;;;;;;;4990965;28;20071;-89
2022/06/12 13:48:44;;;;;;;2.80;1.00;;;;;;;;;;4992613;28;20033;-91
2022/06/12 13:51:22;;;;;;;1.52;1.00;;;;;;;;;;4990969;28;20026;-90
2022/06/12 13:53:49;;;;;;;3.03;1.10;;;;;;;;;;4992232;28;20031;-88
2022/06/12 13:56:17;;;;;;;3.63;1.20;;;;;;;;;;4991928;28;20027;-88
2022/06/12 13:58:50;;;;;;;4.93;1.00;;;;;;;;;;4990772;28;20500;-88
2022/06/12 14:01:28;;;;;;;3.20;1.20;;;;;;;;;;4990382;28;20037;-92
2022/06/12 14:03:59;;;;;;;3.92;1.40;;;;;;;;;;4992596;28;20022;-90
2022/06/12 14:06:24;;;;;;;;;;;;;;;;;;4992586;28;20022;-91
2022/06/12 14:08:54;;;;;;;2.42;1.30;;;;;;;;;;4991031;28;19912;-91
2022/06/12 14:11:27;;;;;;;3.83;1.05;;;;;;;;;;4991546;28;20030;-91
2022/06/12 14:13:53;;;;;;;8.68;1.00;;;;;;;;;;4983916;28;20042;-91
2022/06/12 14:16:20;;;;;;;3.67;0.85;;;;;;;;;;4975688;28;20050;-89
2022/06/12 14:18:57;;;;;;;3.92;1.25;;;;;;;;;;4977093;28;20556;-90
2022/06/12 14:21:25;;;;;;;0.90;0.82;;;;;;;;;;4995221;28;20034;-90
2022/06/12 14:23:52;;;;;;;2.25;0.95;;;;;;;;;;4995878;28;20030;-89
2022/06/12 14:26:26;;;;;;;3.50;1.60;;;;;;;;;;4994187;28;20034;-91
2022/06/12 14:28:52;;;;;;;4.07;1.10;;;;;;;;;;4994175;28;20030;-93
2022/06/12 14:31:18;;;;;;;3.58;1.40;;;;;;;;;;4994158;28;20461;-91
2022/06/12 14:33:51;;;;;;;5.63;1.20;;;;;;;;;;4993855;28;20038;-91
2022/06/12 14:36:28;;;;;;;3.17;1.42;;;;;;;;;;4993899;28;20408;-91
2022/06/12 14:38:55;;;;;;;3.97;1.27;;;;;;;;;;4993827;28;20034;-92
2022/06/12 14:41:28;;;;;;;2.42;1.13;;;;;;;;;;4995001;28;20396;-91
2022/06/12 14:43:55;;;;;;;1.60;1.17;;;;;;;;;;4993877;28;20367;-91
2022/06/12 14:46:23;;;;;;;2.70;1.00;;;;;;;;;;4995072;28;20046;-92
2022/06/12 14:48:49;;;;;;;2.08;1.10;;;;;;;;;;4995495;28;20392;-91
2022/06/12 14:51:16;;;;;;;2.03;1.20;;;;;;;;;;4994904;28;20081;-91
2022/06/12 14:53:42;;;;;;;2.80;1.10;;;;;;;;;;4995233;28;20041;-91
2022/06/12 14:56:21;;;;;;;5.18;1.20;;;;;;;;;;4993780;28;20054;-91
2022/06/12 14:58:47;;;;;;;5.32;2.35;;;;;;;;;;4995288;28;20034;-91
2022/06/12 15:01:16;;;;;;;4.78;1.42;;;;;;;;;;4992390;28;20095;-90
2022/06/12 15:03:42;;;;;;;3.00;1.00;;;;;;;;;;4986017;28;20022;-90
2022/06/12 15:06:17;;;;;;;3.65;1.10;;;;;;;;;;4989221;28;20500;-90
2022/06/12 15:08:52;;;;;;;3.67;1.35;;;;;;;;;;4990320;23;20097;-88
2022/06/12 15:11:23;;;;;;;6.40;1.38;;;;;;;;;;4951424;29;20028;-88
2022/06/12 15:13:51;;;;;;;;;;;;;;;;;;4964476;28;20026;-88
2022/06/12 15:16:20;;;;;;;3.33;1.40;;;;;;;;;;4956716;28;19907;-89
2022/06/12 15:18:48;;;;;;;4.88;2.35;;;;;;;;;;4962799;28;20088;-89
2022/06/12 15:21:37;;;;;;;2.58;1.10;;;;;;;;;;4975073;28;20118;-87
2022/06/12 15:24:12;;;;;;;2.00;0.90;;;;;;;;;;4972291;28;20035;-88
2022/06/12 15:32:19;;;;;;;6.65;3.35;;;;;;;;;;4976140;28;20048;-88
2022/06/12 15:34:45;;;;;;;2.13;1.20;;;;;;;;;;4975013;28;20027;-88
2022/06/12 15:37:14;;;;;;;7.80;2.30;;;;;;;;;;4974768;28;20027;-88
2022/06/12 15:39:43;;;;;;;1.45;1.05;;;;;;;;;;4984278;28;20085;-88
2022/06/12 15:42:16;;;;;;;3.35;1.20;;;;;;;;;;4974997;28;20030;-89
2022/06/12 15:44:50;;;;;;;2.05;1.30;;;;;;;;;;4973998;28;20110;-87
2022/06/12 15:47:16;;;;;;;1.33;0.90;;;;;;;;;;4974092;28;20039;-89
2022/06/12 15:49:45;;;;;;;3.13;1.38;;;;;;;;;;4975820;28;20496;-88
2022/06/12 15:55:35;;;;;;;3.10;1.33;;;;;;;;;;4992720;28;20069;-87
2022/06/12 15:58:10;;;;;;;3.90;1.02;;;;;;;;;;4980839;28;20427;-88
2022/06/12 16:00:56;;;;;;;2.70;1.23;;;;;;;;;;4977331;28;20054;-89
2022/06/12 16:03:36;;;;;;;;;;;;;;;;;;;;;
2022/06/12 16:06:11;;;;;;;4.50;1.00;;;;;;;;;;4967542;28;20049;-89
2022/06/12 16:09:00;;;;;;;2.75;1.10;;;;;;;;;;4971687;28;20077;-88
2022/06/12 16:11:39;;;;;;;4.10;1.13;;;;;;;;;;4963340;28;20385;-88
2022/06/12 16:14:14;;;;;;;3.88;1.83;;;;;;;;;;4974220;28;20031;-88
2022/06/12 16:16:51;;;;;;;3.40;0.82;;;;;;;;;;4973339;28;20031;-89
2022/06/12 16:19:20;;;;;;;2.22;1.10;;;;;;;;;;4960238;28;20039;-88
2022/06/12 16:21:47;;;;;;;2.53;0.98;;;;;;;;;;4969206;28;20039;-89